Time;durP1;ratioP1;P1;durP2;ratioP2;P2;SDS_P1;SDS_P2;PMS_P1;PMS_P2;Temp;Humidity;BMP_temperature;BMP_pressure;BME280_temperature;BME280_humidity;BME280_pressure;Samples;Min_cycle;Max_cycle;Signal;HPM_P1;HPM_P2
2022/04/04 00:02:03;;;;;;;;;7.80;6.60;;;;;3.14;68.24;100155.59;5098579;28;8920;-63
2022/04/04 00:04:31;;;;;;;;;7.00;7.00;;;;;3.13;67.54;100148.66;5098582;28;8834;-62
2022/04/04 00:06:59;;;;;;;;;7.80;7.80;;;;;3.12;67.61;100144.31;5098711;28;8840;-63
2022/04/04 00:09:28;;;;;;;;;6.20;6.00;;;;;3.10;67.73;100154.03;5098061;28;8924;-64
2022/04/04 00:11:55;;;;;;;;;3.00;2.20;;;;;3.07;68.43;100158.56;5097594;28;8863;-62
2022/04/04 00:14:23;;;;;;;;;6.80;6.00;;;;;3.05;68.11;100153.41;5109495;28;8822;-63
2022/04/04 00:16:51;;;;;;;;;6.20;6.20;;;;;3.05;68.01;100147.28;5118616;28;8833;-63
2022/04/04 00:19:19;;;;;;;;;3.00;3.00;;;;;3.05;68.37;100148.16;5118315;28;8843;-63
2022/04/04 00:21:47;;;;;;;;;4.00;3.60;;;;;3.04;67.64;100141.16;5118951;28;9617;-65
2022/04/04 00:24:14;;;;;;;;;4.80;4.40;;;;;3.02;68.22;100135.13;5117784;28;9550;-65
2022/04/04 00:26:42;;;;;;;;;6.00;5.20;;;;;3.02;68.43;100135.13;5118775;28;8821;-64
2022/04/04 00:29:11;;;;;;;;;6.80;6.80;;;;;3.00;68.11;100128.22;5118008;28;8818;-63
2022/04/04 00:31:39;;;;;;;;;5.80;5.60;;;;;2.99;68.38;100126.53;5118284;28;8829;-62
2022/04/04 00:34:06;;;;;;;;;4.20;4.20;;;;;2.97;67.60;100120.47;5117970;28;8845;-63
2022/04/04 00:36:34;;;;;;;;;4.00;4.00;;;;;2.94;68.21;100132.00;5118069;28;8818;-62
2022/04/04 00:39:02;;;;;;;;;6.40;6.20;;;;;2.92;68.12;100114.56;5117815;28;8966;-62
2022/04/04 00:41:30;;;;;;;;;4.00;4.00;;;;;2.90;68.48;100112.03;5118286;28;8964;-65
2022/04/04 00:43:58;;;;;;;;;7.00;6.40;;;;;2.89;68.49;100104.22;5109478;28;8946;-62
2022/04/04 00:46:25;;;;;;;;;6.80;6.40;;;;;2.89;68.59;100107.66;5097683;28;8858;-64
2022/04/04 00:48:55;;;;;;;;;7.00;6.40;;;;;2.88;68.29;100103.34;5097448;28;8843;-63
2022/04/04 00:51:22;;;;;;;;;5.60;4.00;;;;;2.88;68.54;100102.50;5097678;28;8842;-64
2022/04/04 00:53:50;;;;;;;;;1.80;1.80;;;;;2.86;68.31;100099.94;5097125;28;8975;-63
2022/04/04 00:56:18;;;;;;;;;7.00;7.00;;;;;2.85;68.29;100092.97;5097146;28;8828;-62
2022/04/04 00:58:47;;;;;;;;;4.20;3.00;;;;;2.84;68.20;100093.91;5097336;28;8861;-62
2022/04/04 01:01:15;;;;;;;;;6.60;4.00;;;;;2.83;68.19;100088.72;5096207;28;8819;-62
2022/04/04 01:03:43;;;;;;;;;5.20;5.20;;;;;2.81;68.69;100085.31;5096286;28;8847;-63
2022/04/04 01:06:11;;;;;;;;;1.00;1.00;;;;;2.78;68.47;100086.28;5095642;28;8847;-64
2022/04/04 01:08:39;;;;;;;;;9.00;8.20;;;;;2.77;68.85;100081.97;5096074;28;8824;-63
2022/04/04 01:11:06;;;;;;;;;5.20;4.40;;;;;2.76;68.34;100079.41;5095499;28;9632;-64
2022/04/04 01:13:34;;;;;;;;;7.00;6.20;;;;;2.76;68.45;100076.75;5100894;28;8817;-62
2022/04/04 01:16:02;;;;;;;;;6.20;6.20;;;;;2.77;68.65;100076.72;5116555;28;8821;-62
2022/04/04 01:18:30;;;;;;;;;9.00;8.60;;;;;2.79;68.79;100076.66;5117066;28;8837;-63
2022/04/04 01:20:58;;;;;;;;;7.80;7.00;;;;;2.82;68.51;100069.47;5117332;28;9717;-63
2022/04/04 01:23:25;;;;;;;;;9.00;8.20;;;;;2.87;68.44;100066.63;5116749;28;8971;-63
2022/04/04 01:25:53;;;;;;;;;6.80;6.00;;;;;2.90;68.40;100056.81;5117322;28;8844;-65
2022/04/04 01:28:21;;;;;;;;;9.60;8.00;;;;;2.90;68.06;100056.81;5116802;28;8817;-63
2022/04/04 01:30:49;;;;;;;;;9.60;8.80;;;;;2.90;68.26;100063.84;5116833;28;8902;-63
2022/04/04 01:33:17;;;;;;;;;6.00;6.00;;;;;2.88;68.21;100058.63;5115412;28;8829;-68
2022/04/04 01:35:45;;;;;;;;;8.60;8.60;;;;;2.86;68.26;100049.97;5117112;28;8845;-64
2022/04/04 01:38:13;;;;;;;;;6.00;6.00;;;;;2.87;68.72;100054.31;5116681;28;8857;-62
2022/04/04 01:40:41;;;;;;;;;12.40;9.00;;;;;2.89;68.57;100047.19;5116977;28;8845;-64
2022/04/04 01:43:09;;;;;;;;;9.40;9.00;;;;;2.91;69.03;100048.00;5116796;28;8910;-63
2022/04/04 01:48:22;;;;;;;;;3.00;1.80;;;;;2.97;68.90;100038.97;5116800;28;8848;-63
2022/04/04 01:50:49;;;;;;;;;7.00;7.00;;;;;2.99;68.24;100048.50;5116719;28;8975;-62
2022/04/04 01:53:31;;;;;;;;;9.40;6.40;;;;;2.98;68.02;100040.66;5116437;28;8833;-63
2022/04/04 01:55:59;;;;;;;;;10.40;6.40;;;;;2.97;68.96;100041.59;5116278;28;8968;-63
2022/04/04 01:58:27;;;;;;;;;9.80;8.00;;;;;2.94;68.55;100029.44;5116730;28;8841;-63
2022/04/04 02:00:58;;;;;;;;;9.40;9.40;;;;;2.93;68.69;100026.88;5116827;28;8838;-62
2022/04/04 02:03:26;;;;;;;;;10.40;10.40;;;;;2.90;69.06;100025.25;5098832;28;8955;-63
2022/04/04 02:05:54;;;;;;;;;12.80;11.20;;;;;2.90;68.83;100024.41;5096193;28;8946;-64
2022/04/04 02:08:21;;;;;;;;;6.80;6.80;;;;;2.88;69.20;100016.56;5095823;28;8819;-61
2022/04/04 02:10:49;;;;;;;;;6.20;4.40;;;;;2.87;68.88;100012.25;5095647;28;9548;-63
2022/04/04 02:13:17;;;;;;;;;6.60;6.00;;;;;2.85;68.78;100013.22;5096209;28;8827;-63
2022/04/04 02:15:45;;;;;;;;;8.40;8.40;;;;;2.83;68.98;100010.69;5095874;28;9508;-64
2022/04/04 02:18:13;;;;;;;;;8.80;8.60;;;;;2.82;69.11;100005.50;5096195;28;8870;-63
2022/04/04 02:20:41;;;;;;;;;7.80;6.40;;;;;2.81;68.74;99998.53;5095359;28;8848;-62
2022/04/04 02:23:09;;;;;;;;;4.40;4.00;;;;;2.78;69.23;99994.28;5095665;28;9387;-62
2022/04/04 02:25:37;;;;;;;;;10.00;8.80;;;;;2.76;68.75;99993.50;5095859;28;8940;-62
2022/04/04 02:28:05;;;;;;;;;4.80;4.40;;;;;2.73;69.75;99982.28;5095786;28;8974;-63
2022/04/04 02:30:33;;;;;;;;;8.20;8.00;;;;;2.72;69.32;99978.78;5095661;28;8855;-62
2022/04/04 02:33:01;;;;;;;;;6.60;6.00;;;;;2.70;69.38;99978.03;5108496;28;8830;-61
2022/04/04 02:35:29;;;;;;;;;9.20;8.00;;;;;2.70;69.69;99974.53;5115904;28;8855;-62
2022/04/04 02:37:56;;;;;;;;;4.40;3.40;;;;;2.70;70.02;99972.75;5115470;28;8951;-64
2022/04/04 02:40:34;;;;;;;;;9.00;9.00;;;;;2.70;69.75;99967.50;5116316;28;9517;-63
2022/04/04 02:43:02;;;;;;;;;9.00;9.00;;;;;2.71;69.56;99965.72;5115948;28;8853;-63
2022/04/04 02:45:30;;;;;;;;;3.40;3.40;;;;;2.69;69.41;99951.81;5115855;28;8925;-63
2022/04/04 02:47:58;;;;;;;;;6.00;6.00;;;;;2.68;69.74;99956.22;5115897;28;8834;-62
2022/04/04 02:50:26;;;;;;;;;8.00;8.00;;;;;2.67;69.54;99951.91;5115615;28;8821;-62
2022/04/04 02:52:53;;;;;;;;;11.80;10.00;;;;;2.68;70.10;99947.47;5115807;28;8837;-64
2022/04/04 02:58:09;;;;;;;;;7.40;7.00;;;;;2.66;69.50;99939.66;5115900;28;8871;-63
2022/04/04 03:00:36;;;;;;;;;7.80;6.60;;;;;2.67;70.31;99930.88;5115813;28;8817;-63
2022/04/04 03:03:04;;;;;;;;;9.20;7.40;;;;;2.68;70.38;99936.97;5098673;28;8912;-65
2022/04/04 03:05:32;;;;;;;;;9.40;8.20;;;;;2.66;69.83;99933.56;5095529;28;8836;-64
2022/04/04 03:08:00;;;;;;;;;7.00;7.00;;;;;2.66;70.37;99931.78;5095542;28;8837;-63
2022/04/04 03:10:27;;;;;;;;;8.60;7.20;;;;;2.67;70.39;99920.34;5095438;28;8832;-65
2022/04/04 03:12:55;;;;;;;;;7.80;6.40;;;;;2.69;69.89;99921.13;5095715;28;8882;-63
2022/04/04 03:15:23;;;;;;;;;7.00;4.00;;;;;2.71;70.46;99919.28;5094784;28;9523;-65
2022/04/04 03:17:51;;;;;;;;;12.40;9.40;;;;;2.70;69.99;99914.94;5095434;28;9473;-63
2022/04/04 03:20:19;;;;;;;;;9.40;6.20;;;;;2.72;69.98;99914.88;5095080;28;8977;-65
2022/04/04 03:22:47;;;;;;;;;7.60;7.40;;;;;2.72;70.56;99907.00;5095295;28;8836;-65
2022/04/04 03:25:15;;;;;;;;;12.80;11.60;;;;;2.73;71.01;99908.69;5095466;28;8845;-63
2022/04/04 03:27:42;;;;;;;;;9.60;8.60;;;;;2.74;70.32;99899.88;5095712;28;8874;-63
2022/04/04 03:30:10;;;;;;;;;3.60;3.00;;;;;2.73;70.60;99891.13;5095501;28;8950;-65
2022/04/04 03:32:38;;;;;;;;;7.80;7.40;;;;;2.74;70.47;99894.63;5109919;28;8834;-64
2022/04/04 03:35:05;;;;;;;;;8.20;6.60;;;;;2.75;70.58;99888.44;5115147;28;8833;-63
2022/04/04 03:37:33;;;;;;;;;6.40;6.40;;;;;2.75;70.81;99880.53;5114600;28;8948;-62
2022/04/04 03:40:01;;;;;;;;;7.80;6.60;;;;;2.76;70.51;99875.22;5114862;28;8860;-63
2022/04/04 03:42:28;;;;;;;;;9.20;8.60;;;;;2.77;70.67;99869.03;5115151;28;8850;-64
2022/04/04 03:44:56;;;;;;;;;8.00;7.20;;;;;2.79;70.90;99864.53;5115582;28;8813;-63
2022/04/04 03:47:24;;;;;;;;;2.20;0.60;;;;;2.82;70.22;99867.03;5117555;28;8835;-63
2022/04/04 03:49:51;;;;;;;;;10.40;9.80;;;;;2.84;70.90;99853.78;5119073;28;8947;-65
2022/04/04 03:52:20;;;;;;;;;6.40;4.80;;;;;2.86;71.02;99854.56;5118022;28;8813;-63
2022/04/04 03:54:48;;;;;;;;;3.40;3.20;;;;;2.87;70.77;99849.22;5118302;28;8851;-64
2022/04/04 03:57:16;;;;;;;;;7.20;6.40;;;;;2.91;70.49;99855.19;5117827;28;9503;-64
2022/04/04 03:59:44;;;;;;;;;7.40;6.80;;;;;2.96;70.69;99840.03;5118103;28;8841;-65
2022/04/04 04:02:12;;;;;;;;;10.00;9.00;;;;;3.02;70.76;99834.47;5105655;28;8939;-65
2022/04/04 04:04:40;;;;;;;;;5.60;5.60;;;;;3.06;70.62;99839.50;5097647;28;8863;-64
2022/04/04 04:07:10;;;;;;;;;4.00;4.00;;;;;3.11;69.91;99821.69;5098086;28;8827;-65
2022/04/04 04:09:39;;;;;;;;;4.00;4.00;;;;;3.14;70.25;99815.41;5097478;28;8849;-63
2022/04/04 04:12:06;;;;;;;;;3.00;3.00;;;;;3.18;70.62;99828.34;5098276;28;8864;-64
2022/04/04 04:14:34;;;;;;;;;3.00;3.00;;;;;3.22;70.53;99806.22;5098196;28;8906;-62
2022/04/04 04:17:02;;;;;;;;;4.40;3.40;;;;;3.26;70.21;99805.09;5101947;28;9453;-63
2022/04/04 04:22:15;;;;;;;;;9.40;7.20;;;;;3.34;70.32;99805.56;5096372;28;8839;-65
2022/04/04 04:24:43;;;;;;;;;6.00;4.00;;;;;3.36;70.44;99803.72;5096477;28;8837;-63
2022/04/04 04:27:11;;;;;;;;;5.60;5.20;;;;;3.38;69.89;99788.69;5096534;28;8824;-68
2022/04/04 04:29:39;;;;;;;;;5.40;4.80;;;;;3.40;70.47;99778.94;5096297;28;8842;-64
2022/04/04 04:32:13;;;;;;;;;2.60;1.80;;;;;3.43;69.78;99786.69;5097065;28;8848;-63
2022/04/04 04:34:46;;;;;;;;;7.00;6.80;;;;;3.45;69.69;99784.81;5097455;28;8823;-65
2022/04/04 04:37:13;;;;;;;;;6.40;6.40;;;;;3.46;69.60;99783.00;5097330;28;8819;-63
2022/04/04 04:39:41;;;;;;;;;7.80;7.20;;;;;3.45;70.29;99774.28;5097312;28;8836;-63
2022/04/04 04:42:09;;;;;;;;;6.20;6.00;;;;;3.45;70.35;99781.31;5097645;28;8858;-65
2022/04/04 04:44:36;;;;;;;;;3.60;3.60;;;;;3.45;69.62;99760.25;5096849;28;8827;-63
2022/04/04 04:47:04;;;;;;;;;3.40;3.20;;;;;3.45;69.62;99763.75;5107583;28;8844;-63
2022/04/04 04:49:32;;;;;;;;;5.60;5.20;;;;;3.47;69.76;99761.03;5116425;28;8911;-63
2022/04/04 04:52:00;;;;;;;;;7.20;7.20;;;;;3.47;69.63;99751.34;5116749;28;8849;-64
2022/04/04 04:54:30;;;;;;;;;7.20;7.20;;;;;3.46;69.98;99744.41;5116507;28;8833;-64
2022/04/04 04:56:58;;;;;;;;;9.60;7.80;;;;;3.46;70.01;99744.41;5116244;28;8830;-64
2022/04/04 04:59:26;;;;;;;;;4.00;3.60;;;;;3.46;69.82;99733.88;5115832;28;8844;-64
2022/04/04 05:01:53;;;;;;;;;6.40;6.20;;;;;3.46;69.67;99736.50;5116069;28;8960;-65
2022/04/04 05:04:21;;;;;;;;;7.40;7.00;;;;;3.43;69.24;99736.69;5116315;28;8818;-63
2022/04/04 05:06:49;;;;;;;;;4.80;4.40;;;;;3.41;69.45;99728.00;5116828;28;8848;-64
2022/04/04 05:09:17;;;;;;;;;6.60;4.00;;;;;3.37;69.54;99720.34;5117476;28;8813;-65
2022/04/04 05:11:45;;;;;;;;;7.00;6.80;;;;;3.35;70.00;99725.72;5116663;28;8845;-63
2022/04/04 05:14:15;;;;;;;;;6.00;6.00;;;;;3.33;69.77;99714.41;5096932;28;8942;-62
2022/04/04 05:16:43;;;;;;;;;6.20;5.60;;;;;3.31;70.12;99712.78;5108064;28;8835;-63
2022/04/04 05:19:11;;;;;;;;;8.20;7.00;;;;;3.29;69.58;99705.00;5095531;28;8946;-62
2022/04/04 05:21:39;;;;;;;;;8.00;6.00;;;;;3.29;69.55;99712.88;5095863;28;8865;-62
2022/04/04 05:24:07;;;;;;;;;5.20;3.80;;;;;3.28;69.89;99703.31;5094973;28;8844;-64
2022/04/04 05:26:34;;;;;;;;;6.60;6.20;;;;;3.28;69.50;99703.31;5094061;28;8936;-63
2022/04/04 05:29:02;;;;;;;;;6.40;6.40;;;;;3.28;69.92;99699.81;5093709;28;8831;-63
2022/04/04 05:31:31;;;;;;;;;9.00;8.20;;;;;3.28;69.56;99712.97;5093519;28;8918;-64
2022/04/04 05:33:58;;;;;;;;;5.60;4.80;;;;;3.27;69.65;99701.56;5093075;28;8832;-63
2022/04/04 05:36:26;;;;;;;;;6.00;4.40;;;;;3.26;69.29;99699.88;5093487;28;8827;-63
2022/04/04 05:38:54;;;;;;;;;6.60;6.00;;;;;3.27;69.30;99698.13;5091209;28;8867;-63
2022/04/04 05:41:22;;;;;;;;;6.80;5.80;;;;;3.25;69.55;99698.19;5091867;28;9007;-63
2022/04/04 05:43:49;;;;;;;;;7.00;7.00;;;;;3.28;69.68;99686.66;5091744;28;8835;-63
2022/04/04 05:46:17;;;;;;;;;5.20;5.20;;;;;3.29;69.58;99690.97;5091952;28;9198;-62
2022/04/04 05:48:45;;;;;;;;;9.60;9.00;;;;;3.31;69.34;99692.59;5091419;28;8824;-64
2022/04/04 05:51:16;;;;;;;;;7.00;6.00;;;;;3.34;69.42;99687.16;5091194;28;8832;-63
2022/04/04 05:53:44;;;;;;;;;10.60;9.00;;;;;3.37;69.06;99691.41;5091822;28;8956;-63
2022/04/04 05:56:12;;;;;;;;;3.20;3.00;;;;;3.41;69.10;99688.53;5091257;28;8851;-63
2022/04/04 05:58:40;;;;;;;;;6.00;6.00;;;;;3.45;68.83;99679.53;5090566;28;8869;-63
2022/04/04 06:01:09;;;;;;;;;3.80;3.80;;;;;3.50;68.03;99688.03;5089813;28;8868;-64
2022/04/04 06:03:37;;;;;;;;;4.80;3.20;;;;;3.54;68.78;99676.41;5088254;28;8849;-63
2022/04/04 06:06:04;;;;;;;;;5.60;5.20;;;;;3.60;68.60;99664.66;5089894;28;8870;-64
2022/04/04 06:08:32;;;;;;;;;6.00;6.00;;;;;3.63;67.84;99662.72;5090047;28;8846;-64
2022/04/04 06:11:00;;;;;;;;;4.40;4.40;;;;;3.66;68.07;99659.94;5091181;28;9014;-62
2022/04/04 06:13:27;;;;;;;;;8.00;7.20;;;;;3.72;68.08;99658.72;5092733;28;8847;-64
2022/04/04 06:15:55;;;;;;;;;7.40;6.20;;;;;3.77;68.01;99654.06;5092611;28;8828;-63
2022/04/04 06:18:23;;;;;;;;;8.60;6.80;;;;;3.83;67.50;99650.16;5092834;28;8831;-64
2022/04/04 06:20:51;;;;;;;;;3.00;3.00;;;;;3.90;67.55;99651.47;5091152;28;9340;-64
2022/04/04 06:23:19;;;;;;;;;7.00;6.00;;;;;3.96;67.54;99632.69;5090349;28;8848;-65
2022/04/04 06:25:49;;;;;;;;;7.00;6.00;;;;;4.03;67.13;99628.75;5090932;28;8827;-63
2022/04/04 06:28:17;;;;;;;;;6.00;6.00;;;;;4.11;66.95;99623.06;5090392;28;8867;-63
2022/04/04 06:30:44;;;;;;;;;9.00;9.00;;;;;4.16;67.18;99626.25;5089744;28;8869;-63
2022/04/04 06:33:12;;;;;;;;;3.00;3.00;;;;;4.21;66.98;99613.66;5090014;28;8831;-65
2022/04/04 06:35:40;;;;;;;;;8.20;5.60;;;;;4.27;66.46;99613.31;5090557;28;8906;-64
2022/04/04 06:38:08;;;;;;;;;6.80;6.00;;;;;4.34;66.84;99606.72;5091398;28;8831;-63
2022/04/04 06:40:36;;;;;;;;;3.60;3.60;;;;;4.40;66.36;99606.38;5091437;28;8843;-63
2022/04/04 06:43:04;;;;;;;;;7.00;6.20;;;;;4.47;66.26;99595.34;5091400;28;8848;-65
2022/04/04 06:45:31;;;;;;;;;3.20;3.20;;;;;4.55;66.17;99594.88;5092118;28;9512;-63
2022/04/04 06:47:59;;;;;;;;;3.00;1.00;;;;;4.66;65.49;99592.44;5092654;28;8836;-64
2022/04/04 06:50:27;;;;;;;;;7.20;6.40;;;;;4.73;65.52;99591.94;5092751;28;8815;-65
2022/04/04 06:52:54;;;;;;;;;4.00;3.80;;;;;4.79;65.52;99570.47;5092017;28;8851;-64
2022/04/04 06:55:42;;;;;;;;;7.20;7.20;;;;;4.87;65.47;99577.94;5092278;28;8852;-64
2022/04/04 06:58:09;;;;;;;;;6.00;4.40;;;;;4.90;65.06;99580.38;5092274;28;8831;-63
2022/04/04 07:00:37;;;;;;;;;4.00;3.80;;;;;4.93;65.29;99569.66;5090926;28;8839;-64
2022/04/04 07:03:08;;;;;;;;;6.40;6.40;;;;;4.95;65.15;99551.91;5091695;28;8910;-64
2022/04/04 07:05:36;;;;;;;;;6.20;6.00;;;;;4.98;65.09;99559.63;5091306;28;8878;-65
2022/04/04 07:08:04;;;;;;;;;6.00;6.00;;;;;5.02;65.22;99543.50;5091913;28;9088;-63
2022/04/04 07:10:32;;;;;;;;;5.00;4.60;;;;;5.07;64.53;99561.69;5091454;28;9405;-64
2022/04/04 07:13:00;;;;;;;;;6.00;4.80;;;;;5.14;64.75;99544.50;5091901;28;8881;-63
2022/04/04 07:15:28;;;;;;;;;4.00;4.00;;;;;5.21;64.31;99540.53;5092010;28;8847;-63
2022/04/04 07:17:56;;;;;;;;;4.00;4.00;;;;;5.30;63.49;99530.25;5091380;28;8847;-64
2022/04/04 07:20:24;;;;;;;;;7.40;6.00;;;;;5.41;63.42;99521.63;5093144;28;8933;-63
2022/04/04 07:22:52;;;;;;;;;1.40;0.80;;;;;5.48;63.51;99533.47;5095737;28;8827;-64
2022/04/04 07:25:21;;;;;;;;;3.80;3.40;;;;;5.51;63.48;99525.34;5095956;28;8831;-64
2022/04/04 07:27:49;;;;;;;;;4.60;3.60;;;;;5.52;62.90;99519.97;5095014;28;8856;-63
2022/04/04 07:30:17;;;;;;;;;3.00;2.20;;;;;5.58;63.23;99509.00;5094904;28;9512;-64
2022/04/04 07:32:45;;;;;;;;;5.60;5.60;;;;;5.65;63.28;99518.22;5095908;28;8836;-64
2022/04/04 07:35:13;;;;;;;;;3.00;3.00;;;;;5.75;62.77;99510.50;5095064;28;9548;-64
2022/04/04 07:37:41;;;;;;;;;3.00;2.60;;;;;5.84;62.76;99496.75;5093981;28;8843;-63
2022/04/04 07:40:10;;;;;;;;;4.00;4.00;;;;;6.00;62.06;99484.19;5094095;28;8967;-64
2022/04/04 07:42:38;;;;;;;;;7.20;6.20;;;;;6.19;62.10;99479.31;5094169;28;8848;-63
2022/04/04 07:45:06;;;;;;;;;3.60;3.40;;;;;6.38;61.52;99466.50;5094919;28;8866;-63
2022/04/04 07:47:34;;;;;;;;;0.80;0.00;;;;;6.53;61.52;99463.59;5094014;28;9536;-64
2022/04/04 07:50:02;;;;;;;;;4.00;4.00;;;;;6.65;60.90;99451.31;5094714;28;8823;-64
2022/04/04 07:52:29;;;;;;;;;6.00;6.00;;;;;6.68;60.85;99451.94;5093768;28;8835;-63
2022/04/04 07:54:58;;;;;;;;;6.20;6.00;;;;;6.71;60.78;99440.28;5094769;28;8831;-63
2022/04/04 07:57:25;;;;;;;;;6.00;5.60;;;;;6.72;61.15;99448.13;5093911;28;8840;-63
2022/04/04 07:59:53;;;;;;;;;13.40;12.40;;;;;6.71;61.32;99445.59;5094091;28;9543;-64
2022/04/04 08:02:21;;;;;;;;;5.20;4.00;;;;;6.73;60.48;99438.38;5093875;28;8855;-63
2022/04/04 08:04:49;;;;;;;;;9.40;8.20;;;;;6.77;60.92;99414.25;5094554;28;8860;-63
2022/04/04 08:07:19;;;;;;;;;9.20;7.40;;;;;6.82;60.75;99422.69;5094777;28;8820;-64
2022/04/04 08:09:47;;;;;;;;;6.00;6.00;;;;;6.89;60.05;99418.63;5094096;28;8855;-63
2022/04/04 08:12:15;;;;;;;;;7.00;6.00;;;;;7.04;59.82;99411.41;5091618;28;8860;-64
2022/04/04 08:14:44;;;;;;;;;4.00;4.00;;;;;7.21;59.74;99416.28;5094707;28;8836;-64
2022/04/04 08:17:12;;;;;;;;;5.60;4.80;;;;;7.36;59.50;99423.06;5094187;28;8853;-63
2022/04/04 08:19:40;;;;;;;;;10.00;10.00;;;;;7.40;59.27;99413.91;5094381;28;8835;-63
2022/04/04 08:22:08;;;;;;;;;7.40;7.00;;;;;7.43;58.95;99406.59;5094936;28;8878;-64
2022/04/04 08:24:36;;;;;;;;;3.00;3.00;;;;;7.45;59.33;99395.91;5094163;28;9772;-64
2022/04/04 08:27:04;;;;;;;;;6.20;6.20;;;;;7.48;59.12;99424.78;5094788;28;8956;-63
2022/04/04 08:29:32;;;;;;;;;6.80;6.60;;;;;7.46;58.77;99392.28;5093539;28;8835;-64
2022/04/04 08:32:00;;;;;;;;;4.80;4.40;;;;;7.50;58.82;99383.16;5091002;28;9537;-64
2022/04/04 08:34:29;;;;;;;;;3.20;3.20;;;;;7.55;58.66;99375.69;5093495;28;8840;-64
2022/04/04 08:36:57;;;;;;;;;3.60;2.40;;;;;7.57;58.87;99357.88;5093473;28;8949;-63
2022/04/04 08:39:25;;;;;;;;;7.00;6.20;;;;;7.54;58.69;99374.84;5093066;28;8843;-63
2022/04/04 08:41:53;;;;;;;;;6.40;5.60;;;;;7.49;59.02;99365.59;5093138;28;8891;-64
2022/04/04 08:44:20;;;;;;;;;7.00;6.20;;;;;7.39;59.08;99359.28;5092646;28;8836;-63
2022/04/04 08:46:48;;;;;;;;;6.80;4.00;;;;;7.33;58.97;99342.06;5092466;28;8839;-64
2022/04/04 08:49:16;;;;;;;;;7.00;7.00;;;;;7.33;58.82;99354.44;5093282;28;9828;-64
2022/04/04 08:51:44;;;;;;;;;9.80;7.80;;;;;7.34;59.36;99342.91;5092657;28;8819;-64
2022/04/04 08:54:12;;;;;;;;;5.20;5.20;;;;;7.42;58.81;99353.75;5092203;28;8932;-64
2022/04/04 08:56:40;;;;;;;;;3.60;3.60;;;;;7.46;58.90;99350.75;5090725;28;8982;-64
2022/04/04 08:59:07;;;;;;;;;6.40;6.40;;;;;7.47;58.57;99319.78;5091501;28;8840;-65
2022/04/04 09:01:35;;;;;;;;;6.00;5.80;;;;;7.53;58.23;99324.63;5091057;28;8873;-64
2022/04/04 09:04:03;;;;;;;;;8.00;7.80;;;;;7.60;58.47;99309.94;5091699;28;9351;-64
2022/04/04 09:06:31;;;;;;;;;6.00;6.00;;;;;7.68;57.74;99310.19;5091343;28;8827;-63
2022/04/04 09:08:59;;;;;;;;;5.20;3.60;;;;;7.70;57.87;99320.53;5091779;28;8823;-64
2022/04/04 09:11:26;;;;;;;;;9.40;8.20;;;;;7.68;57.55;99290.69;5092945;28;8994;-63
2022/04/04 09:13:54;;;;;;;;;4.00;4.00;;;;;7.66;57.86;99298.88;5090582;28;8878;-64
2022/04/04 09:16:22;;;;;;;;;6.40;6.00;;;;;7.61;57.78;99295.75;5091758;28;8859;-64
2022/04/04 09:18:50;;;;;;;;;6.80;5.00;;;;;7.53;57.98;99291.06;5092414;28;8844;-65
2022/04/04 09:21:18;;;;;;;;;9.00;7.80;;;;;7.44;58.72;99297.03;5092007;28;8854;-64
2022/04/04 09:23:46;;;;;;;;;3.40;3.20;;;;;7.38;58.25;99299.31;5091547;28;8949;-63
2022/04/04 09:26:14;;;;;;;;;3.00;3.00;;;;;7.32;58.40;99286.56;5091519;28;8851;-64
2022/04/04 09:28:42;;;;;;;;;5.20;5.20;;;;;7.35;58.57;99286.34;5091304;28;9291;-63
2022/04/04 09:31:10;;;;;;;;;4.00;3.60;;;;;7.43;58.54;99278.63;5089616;28;8835;-63
2022/04/04 09:33:38;;;;;;;;;5.80;5.20;;;;;7.40;58.42;99274.41;5087188;28;8831;-64
2022/04/04 09:36:06;;;;;;;;;3.80;3.60;;;;;7.28;58.62;99277.16;5089424;28;9005;-64
2022/04/04 09:38:34;;;;;;;;;3.40;3.00;;;;;7.26;58.93;99257.88;5089243;28;8839;-64
2022/04/04 09:41:02;;;;;;;;;4.40;4.40;;;;;7.34;58.94;99259.00;5090242;28;8929;-64
2022/04/04 09:43:31;;;;;;;;;11.80;9.60;;;;;7.49;58.45;99241.91;5090072;28;8835;-65
2022/04/04 09:45:59;;;;;;;;;3.40;3.00;;;;;7.59;57.97;99255.28;5092324;28;9225;-63
2022/04/04 09:48:27;;;;;;;;;6.20;6.20;;;;;7.64;58.17;99227.47;5092536;28;8851;-64
2022/04/04 09:50:55;;;;;;;;;3.40;3.20;;;;;7.65;57.41;99223.00;5093482;28;9664;-63
2022/04/04 09:53:23;;;;;;;;;8.20;8.20;;;;;7.70;58.03;99227.81;5091790;28;8832;-63
2022/04/04 09:55:52;;;;;;;;;7.40;6.60;;;;;7.68;57.87;99229.75;5091721;28;9294;-63
2022/04/04 09:58:19;;;;;;;;;3.20;3.20;;;;;7.58;58.25;99206.75;5092601;28;8835;-64
2022/04/04 10:00:49;;;;;;;;;5.60;4.00;;;;;7.52;57.71;99219.63;5090004;28;8961;-64
2022/04/04 10:03:17;;;;;;;;;2.20;1.80;;;;;7.44;58.09;99206.97;5090590;28;9482;-63
2022/04/04 10:05:45;;;;;;;;;7.00;7.00;;;;;7.45;58.31;99216.66;5090509;28;8916;-63
2022/04/04 10:08:13;;;;;;;;;5.20;4.00;;;;;7.49;57.81;99193.41;5090895;28;9570;-64
2022/04/04 10:10:41;;;;;;;;;4.40;4.40;;;;;7.55;58.52;99200.84;5090140;28;8869;-64
2022/04/04 10:13:08;;;;;;;;;4.00;3.20;;;;;7.60;58.24;99182.78;5088546;28;8909;-65
2022/04/04 10:15:36;;;;;;;;;8.60;8.20;;;;;7.72;57.58;99183.50;5089706;28;8950;-64
2022/04/04 10:18:04;;;;;;;;;6.60;6.60;;;;;7.85;57.95;99170.94;5091179;28;8815;-64
2022/04/04 10:20:32;;;;;;;;;5.20;4.00;;;;;7.97;57.08;99201.75;5091358;28;8831;-64
2022/04/04 10:22:59;;;;;;;;;6.00;6.00;;;;;7.98;56.84;99176.94;5090137;28;8954;-65
2022/04/04 10:25:27;;;;;;;;;4.20;3.40;;;;;7.91;57.19;99146.59;5089362;28;8839;-63
2022/04/04 10:27:55;;;;;;;;;3.60;3.60;;;;;7.88;57.11;99172.50;5090614;28;8979;-64
2022/04/04 10:30:23;;;;;;;;;6.00;6.00;;;;;7.87;57.30;99206.13;5091640;28;8848;-64
2022/04/04 10:32:51;;;;;;;;;6.40;5.60;;;;;7.89;57.59;99175.03;5091113;28;8841;-64
2022/04/04 10:35:18;;;;;;;;;2.60;2.60;;;;;7.99;57.42;99165.34;5089957;28;8958;-64
2022/04/04 10:37:46;;;;;;;;;5.20;5.20;;;;;8.01;56.95;99158.13;5090120;28;8847;-64
2022/04/04 10:40:14;;;;;;;;;6.40;6.20;;;;;7.98;56.70;99184.88;5091149;28;8962;-64
2022/04/04 10:42:43;;;;;;;;;4.00;4.00;;;;;7.86;57.25;99169.13;5090440;28;8887;-64
2022/04/04 10:45:15;;;;;;;;;8.80;4.80;;;;;7.68;58.12;99166.16;5090172;28;8864;-63
2022/04/04 10:47:43;;;;;;;;;6.40;6.20;;;;;7.37;58.71;99163.44;5089806;28;8966;-64
2022/04/04 10:50:11;;;;;;;;;6.40;6.40;;;;;7.16;59.54;99151.88;5088714;28;8875;-63
2022/04/04 10:52:39;;;;;;;;;9.80;9.80;;;;;7.09;60.39;99163.06;5090633;28;8839;-63
2022/04/04 10:55:07;;;;;;;;;8.60;7.60;;;;;6.90;61.06;99162.81;5090963;28;8858;-63
2022/04/04 10:57:35;;;;;;;;;6.60;5.60;;;;;6.60;61.81;99170.44;5095487;28;8962;-62
2022/04/04 11:00:03;;;;;;;;;6.20;5.20;;;;;6.44;62.59;99162.00;5092382;28;8873;-62
2022/04/04 11:02:31;;;;;;;;;7.00;7.00;;;;;6.19;63.68;99152.41;5094220;28;8832;-62
2022/04/04 11:07:48;;;;;;;;;4.20;3.60;;;;;5.78;65.93;99159.00;5092304;28;8853;-63
2022/04/04 11:10:23;;;;;;;;;3.20;3.00;;;;;5.62;66.46;99145.25;5092826;28;8928;-62
2022/04/04 11:12:54;;;;;;;;;7.40;6.80;;;;;5.42;67.10;99148.47;5091822;28;8882;-63
2022/04/04 11:15:27;;;;;;;;;10.00;8.40;;;;;5.25;67.62;99144.38;5092401;28;8827;-63
2022/04/04 11:17:55;;;;;;;;;5.20;3.20;;;;;5.16;68.83;99157.41;5092720;28;9517;-63
2022/04/04 11:20:31;;;;;;;;;12.00;11.20;;;;;5.09;68.80;99150.84;5092808;28;9486;-62
2022/04/04 11:22:59;;;;;;;;;6.60;6.00;;;;;4.97;69.31;99152.56;5092580;28;8839;-63
2022/04/04 11:25:33;;;;;;;;;8.00;8.00;;;;;4.89;69.95;99154.03;5092050;28;8822;-63
2022/04/04 11:28:01;;;;;;;;;3.20;3.00;;;;;4.80;70.57;99138.84;5093412;28;8855;-62
2022/04/04 11:30:29;;;;;;;;;2.60;2.20;;;;;4.73;71.08;99158.69;5093640;28;8831;-62
2022/04/04 11:32:59;;;;;;;;;9.00;7.00;;;;;4.69;71.52;99151.91;5094911;28;8820;-62
2022/04/04 11:35:30;;;;;;;;;6.00;6.00;;;;;4.67;71.76;99130.09;5094440;28;8846;-62
2022/04/04 11:37:58;;;;;;;;;6.00;6.00;;;;;4.65;71.68;99135.47;5094543;28;8855;-62
2022/04/04 11:40:29;;;;;;;;;9.60;5.60;;;;;4.68;71.86;99129.13;5054867;28;8846;-63
2022/04/04 11:42:57;;;;;;;;;11.80;9.80;;;;;4.69;71.56;99129.03;5054402;28;8875;-64
2022/04/04 11:45:24;;;;;;;;;7.80;7.00;;;;;4.69;72.26;99126.41;5052775;28;8872;-63
2022/04/04 11:47:52;;;;;;;;;10.00;9.20;;;;;4.68;72.11;99115.94;5052127;28;9001;-63
2022/04/04 11:50:23;;;;;;;;;4.80;4.00;;;;;4.63;72.93;99121.53;5053183;28;8854;-62
2022/04/04 11:52:50;;;;;;;;;7.00;6.40;;;;;4.64;72.95;99114.50;5050343;28;8854;-64
2022/04/04 11:55:18;;;;;;;;;10.00;10.00;;;;;4.58;73.95;99112.28;5050750;28;8854;-62
2022/04/04 11:57:51;;;;;;;;;7.40;5.60;;;;;4.55;74.04;99110.69;5050618;28;8835;-62
2022/04/04 12:00:18;;;;;;;;;0.00;0.00;;;;;4.60;73.77;99105.94;5052388;28;8961;-63
2022/04/04 12:02:46;;;;;;;;;6.80;6.20;;;;;4.63;74.07;99115.44;5052660;28;8868;-63
2022/04/04 12:05:14;;;;;;;;;8.00;6.60;;;;;4.62;73.58;99111.09;5052932;28;8878;-61